createdAt,value
2023-05-08T00:00:00.426Z,100798.46
2023-05-08T00:02:27.092Z,100801.45
2023-05-08T00:04:53.899Z,100802.85
2023-05-08T00:07:20.597Z,100803.84
2023-05-08T00:09:47.219Z,100805.23
2023-05-08T00:12:13.866Z,100803.71
2023-05-08T00:14:40.549Z,100803.94
2023-05-08T00:17:07.157Z,100803.17
2023-05-08T00:19:34.063Z,100801.81
2023-05-08T00:22:00.921Z,100802.36
2023-05-08T00:24:27.597Z,100803.25
2023-05-08T00:26:54.249Z,100802.20
2023-05-08T00:29:20.852Z,100801.88
2023-05-08T00:31:47.547Z,100798.59
2023-05-08T00:34:14.240Z,100796.32
2023-05-08T00:36:40.854Z,100794.98
2023-05-08T00:39:07.911Z,100798.85
2023-05-08T00:41:34.501Z,100796.77
2023-05-08T00:44:01.187Z,100800.27
2023-05-08T00:46:27.836Z,100803.10
2023-05-08T00:48:54.465Z,100805.36
2023-05-08T00:51:21.063Z,100809.69
2023-05-08T00:53:47.710Z,100811.78
2023-05-08T00:56:15.541Z,100815.10
2023-05-08T00:58:42.561Z,100817.88
2023-05-08T01:01:09.300Z,100812.83
2023-05-08T01:03:36.496Z,100814.95
2023-05-08T01:06:04.427Z,100814.67
2023-05-08T01:08:31.925Z,100817.64
2023-05-08T01:11:22.175Z,100819.77
2023-05-08T01:14:18.536Z,100824.37
2023-05-08T01:17:23.704Z,100829.79
2023-05-08T01:19:59.926Z,100828.30
2023-05-08T01:22:32.673Z,100826.42
2023-05-08T01:25:32.950Z,100831.34
2023-05-08T01:28:24.173Z,100834.55
2023-05-08T01:31:01.102Z,100833.17
2023-05-08T01:33:37.356Z,100832.33
2023-05-08T01:36:15.265Z,100835.33
2023-05-08T01:38:53.627Z,100837.79
2023-05-08T01:41:26.170Z,100833.98
2023-05-08T01:44:18.896Z,100835.21
2023-05-08T01:46:51.109Z,100833.51
2023-05-08T01:49:27.937Z,100833.55
2023-05-08T01:52:03.675Z,100833.37
2023-05-08T01:54:34.138Z,100834.79
2023-05-08T01:57:00.767Z,100838.29
2023-05-08T01:59:28.241Z,100837.78
2023-05-08T02:01:57.249Z,100839.35
2023-05-08T02:04:24.040Z,100840.08
2023-05-08T02:06:51.491Z,100845.48
2023-05-08T02:09:18.101Z,100848.27
2023-05-08T02:11:44.706Z,100851.92
2023-05-08T02:14:11.656Z,100852.11
2023-05-08T02:16:38.320Z,100856.47
2023-05-08T02:19:05.115Z,100857.71
2023-05-08T02:21:32.166Z,100861.02
2023-05-08T02:23:59.022Z,100865.73
2023-05-08T02:26:25.868Z,100867.84
2023-05-08T02:28:56.204Z,100869.75
2023-05-08T02:31:23.026Z,100870.98
2023-05-08T02:33:49.662Z,100872.55
2023-05-08T02:36:18.498Z,100870.13
2023-05-08T02:38:47.255Z,100873.96
2023-05-08T02:41:14.435Z,100874.30
2023-05-08T02:43:41.881Z,100879.02
2023-05-08T02:46:19.927Z,100879.72
2023-05-08T02:48:57.502Z,100881.52
2023-05-08T02:51:46.573Z,100883.10
2023-05-08T02:54:23.050Z,100884.48
2023-05-08T02:56:58.095Z,100884.31
2023-05-08T02:59:45.654Z,100888.84
2023-05-08T03:02:14.493Z,100893.71
2023-05-08T03:04:51.502Z,100894.79
2023-05-08T03:07:20.122Z,100899.83
2023-05-08T03:09:48.843Z,100903.13
2023-05-08T03:12:17.355Z,100906.97
2023-05-08T03:14:53.355Z,100913.08
2023-05-08T03:17:20.149Z,100915.67
2023-05-08T03:19:50.142Z,100920.73
2023-05-08T03:22:17.041Z,100921.06
2023-05-08T03:24:43.743Z,100921.21
2023-05-08T03:27:11.002Z,100925.89
2023-05-08T03:29:38.593Z,100926.19
2023-05-08T03:32:05.708Z,100928.98
2023-05-08T03:34:32.330Z,100929.71
2023-05-08T03:36:59.195Z,100933.05
2023-05-08T03:39:26.834Z,100937.58
2023-05-08T03:41:55.447Z,100940.02
2023-05-08T03:44:21.990Z,100935.84
2023-05-08T03:46:49.060Z,100939.31
2023-05-08T03:49:15.958Z,100939.84
2023-05-08T03:51:42.660Z,100943.31
2023-05-08T03:54:09.259Z,100946.98
2023-05-08T03:56:36.013Z,100946.27
2023-05-08T03:59:28.280Z,100948.67
2023-05-08T04:02:00.498Z,100950.21
2023-05-08T04:04:30.431Z,100954.55
2023-05-08T04:07:03.566Z,100956.80
2023-05-08T04:10:03.175Z,100959.19
2023-05-08T04:12:36.661Z,100960.36
2023-05-08T04:15:13.203Z,100967.30
2023-05-08T04:17:43.882Z,100965.70
2023-05-08T04:20:13.859Z,100967.93
2023-05-08T04:22:41.191Z,100965.98
2023-05-08T04:25:09.037Z,100963.69
2023-05-08T04:27:36.237Z,100960.49
2023-05-08T04:30:03.397Z,100958.55
2023-05-08T04:32:30.459Z,100959.20
2023-05-08T04:34:58.565Z,100957.96
2023-05-08T04:37:26.724Z,100958.98
2023-05-08T04:39:54.221Z,100965.58
2023-05-08T04:42:21.383Z,100965.85
2023-05-08T04:44:48.438Z,100967.34
2023-05-08T04:47:15.529Z,100964.15
2023-05-08T04:49:42.499Z,100965.53
2023-05-08T04:52:09.240Z,100972.42
2023-05-08T04:54:36.104Z,100968.21
2023-05-08T04:57:02.866Z,100968.60
2023-05-08T04:59:29.736Z,100969.11
2023-05-08T05:01:57.111Z,100971.38
2023-05-08T05:04:23.915Z,100973.98
2023-05-08T05:06:50.997Z,100975.55
2023-05-08T05:09:17.661Z,100970.85
2023-05-08T05:11:44.526Z,100982.50
2023-05-08T05:14:13.891Z,100984.20
2023-05-08T05:16:40.826Z,100987.30
2023-05-08T05:19:07.687Z,100988.60
2023-05-08T05:21:34.434Z,100986.42
2023-05-08T05:24:01.698Z,100987.23
2023-05-08T05:26:28.980Z,100987.50
2023-05-08T05:28:55.947Z,100992.16
2023-05-08T05:31:22.619Z,100988.61
2023-05-08T05:33:49.998Z,100992.56
2023-05-08T05:36:18.052Z,100992.33
2023-05-08T05:38:44.689Z,100998.11
2023-05-08T05:41:11.389Z,100994.21
2023-05-08T05:43:38.226Z,100996.02
2023-05-08T05:46:06.206Z,100996.77
2023-05-08T05:48:33.481Z,100992.64
2023-05-08T05:51:00.138Z,101000.86
2023-05-08T05:53:26.784Z,100997.77
2023-05-08T05:55:53.672Z,100992.77
2023-05-08T05:58:20.806Z,100991.22
2023-05-08T06:00:48.353Z,100987.98
2023-05-08T06:03:15.126Z,100983.28
2023-05-08T06:05:42.549Z,100980.84
2023-05-08T06:08:09.242Z,100982.73
2023-05-08T06:10:36.464Z,100979.06
2023-05-08T06:13:03.179Z,100977.50
2023-05-08T06:15:30.038Z,100976.77
2023-05-08T06:17:57.069Z,100979.50
2023-05-08T06:20:24.971Z,100979.80
2023-05-08T06:22:53.199Z,100979.30
2023-05-08T06:25:20.470Z,100978.41
2023-05-08T06:27:47.124Z,100980.33
2023-05-08T06:30:14.136Z,100983.95
2023-05-08T06:32:40.952Z,100979.70
2023-05-08T06:35:08.651Z,100979.23
2023-05-08T06:37:35.340Z,100979.04
2023-05-08T06:40:11.470Z,100978.88
2023-05-08T06:42:38.522Z,100980.58
2023-05-08T06:45:07.475Z,100980.02
2023-05-08T06:47:34.215Z,100981.00
2023-05-08T06:50:01.014Z,100980.35
2023-05-08T06:52:27.616Z,100979.23
2023-05-08T06:54:54.319Z,100977.17
2023-05-08T06:57:21.283Z,100976.70
2023-05-08T06:59:47.920Z,100977.63
2023-05-08T07:02:16.395Z,100981.29
2023-05-08T07:04:44.345Z,100981.88
2023-05-08T07:07:11.633Z,100980.95
2023-05-08T07:09:38.338Z,100984.47
2023-05-08T07:12:05.379Z,100986.98
2023-05-08T07:14:31.976Z,100983.81
2023-05-08T07:16:58.808Z,100988.09
2023-05-08T07:19:25.594Z,100985.17
2023-05-08T07:21:52.662Z,100987.73
2023-05-08T07:24:19.259Z,100981.52
2023-05-08T07:26:46.181Z,100981.05
2023-05-08T07:29:12.945Z,100981.52
2023-05-08T07:31:40.570Z,100985.17
2023-05-08T07:34:07.381Z,100986.14
2023-05-08T07:36:34.136Z,100983.24
2023-05-08T07:39:00.742Z,100983.91
2023-05-08T07:41:27.583Z,100985.67
2023-05-08T07:43:54.337Z,100992.27
2023-05-08T07:46:22.107Z,100992.37
2023-05-08T07:48:49.129Z,100994.61
2023-05-08T07:51:16.009Z,100997.91
2023-05-08T07:53:42.781Z,100994.73
2023-05-08T07:56:09.803Z,100996.48
2023-05-08T07:58:36.708Z,100996.98
2023-05-08T08:01:03.908Z,100991.86
2023-05-08T08:03:30.723Z,100990.08
2023-05-08T08:05:57.585Z,100993.98
2023-05-08T08:08:24.262Z,100991.41
2023-05-08T08:10:50.966Z,100984.48
2023-05-08T08:13:17.833Z,100988.09
2023-05-08T08:15:44.811Z,100992.61
2023-05-08T08:18:11.659Z,100987.56
2023-05-08T08:20:38.454Z,100983.38
2023-05-08T08:23:05.068Z,100986.34
2023-05-08T08:25:31.779Z,100982.41
2023-05-08T08:27:58.746Z,100980.44
2023-05-08T08:30:25.640Z,100984.36
2023-05-08T08:32:52.457Z,100983.89
2023-05-08T08:35:19.169Z,100981.26
2023-05-08T08:37:45.854Z,100980.98
2023-05-08T08:40:12.561Z,100976.01
2023-05-08T08:42:39.207Z,100978.46
2023-05-08T08:45:06.973Z,100975.71
2023-05-08T08:47:41.710Z,100973.86
2023-05-08T08:50:12.853Z,100971.45
2023-05-08T08:52:56.505Z,100977.84
2023-05-08T08:55:26.439Z,100972.13
2023-05-08T08:58:23.210Z,100963.66
2023-05-08T09:00:50.196Z,100976.91
2023-05-08T09:03:17.300Z,100972.10
2023-05-08T09:05:45.473Z,100969.83
2023-05-08T09:08:12.890Z,100974.39
2023-05-08T09:10:39.558Z,100972.16
2023-05-08T09:13:06.262Z,100971.45
2023-05-08T09:15:33.449Z,100968.73
2023-05-08T09:18:03.211Z,100970.40
2023-05-08T09:20:30.056Z,100964.69
2023-05-08T09:22:56.693Z,100963.64
2023-05-08T09:25:23.338Z,100964.86
2023-05-08T09:27:49.962Z,100963.83
2023-05-08T09:30:17.102Z,100964.71
2023-05-08T09:32:44.506Z,100969.08
2023-05-08T09:35:11.862Z,100963.96
2023-05-08T09:37:39.393Z,100959.89
2023-05-08T09:40:22.477Z,100961.48
2023-05-08T09:42:49.844Z,100962.06
2023-05-08T09:45:31.174Z,100964.19
2023-05-08T09:47:58.168Z,100958.85
2023-05-08T09:50:25.673Z,100957.71
2023-05-08T09:52:52.428Z,100961.30
2023-05-08T09:55:19.473Z,100957.66
2023-05-08T09:57:57.298Z,100958.63
2023-05-08T10:00:25.495Z,100958.38
2023-05-08T10:02:59.930Z,100955.55
2023-05-08T10:05:32.397Z,100953.59
2023-05-08T10:08:07.425Z,100952.68
2023-05-08T10:10:36.964Z,100955.20
2023-05-08T10:13:04.257Z,100951.35
2023-05-08T10:15:33.838Z,100951.05
2023-05-08T10:18:05.144Z,100950.08
2023-05-08T10:20:32.490Z,100951.58
2023-05-08T10:22:59.187Z,100942.64
2023-05-08T10:25:25.886Z,100947.84
2023-05-08T10:28:14.632Z,100947.30
2023-05-08T10:30:44.383Z,100945.63
2023-05-08T10:33:11.255Z,100944.14
2023-05-08T10:35:37.927Z,100946.21
2023-05-08T10:38:04.581Z,100945.86
2023-05-08T10:40:31.280Z,100945.02
2023-05-08T10:42:57.878Z,100941.13
2023-05-08T10:45:24.456Z,100941.92
2023-05-08T10:48:00.197Z,100945.78
2023-05-08T10:50:56.583Z,100947.15
2023-05-08T10:53:41.778Z,100951.45
2023-05-08T10:56:09.577Z,100951.08
2023-05-08T10:58:37.336Z,100951.30
2023-05-08T11:01:07.930Z,100959.91
2023-05-08T11:03:42.778Z,100960.41
2023-05-08T11:06:09.770Z,100958.39
2023-05-08T11:08:47.780Z,100960.65
2023-05-08T11:11:19.825Z,100961.35
2023-05-08T11:13:55.513Z,100958.76
2023-05-08T11:16:54.911Z,100960.10
2023-05-08T11:19:22.299Z,100959.80
2023-05-08T11:22:11.728Z,100957.21
2023-05-08T11:24:39.422Z,100955.98
2023-05-08T11:27:06.061Z,100955.21
2023-05-08T11:29:33.193Z,100951.41
2023-05-08T11:32:00.281Z,100952.92
2023-05-08T11:34:43.119Z,100954.27
2023-05-08T11:37:20.534Z,100952.14
2023-05-08T11:39:47.657Z,100948.75
2023-05-08T11:42:29.573Z,100947.46
2023-05-08T11:45:06.562Z,100945.53
2023-05-08T11:47:44.255Z,100947.16
2023-05-08T11:50:12.147Z,100947.02
2023-05-08T11:52:41.251Z,100947.23
2023-05-08T11:55:09.722Z,100947.51
2023-05-08T11:57:36.463Z,100948.45
2023-05-08T12:00:10.188Z,100939.85
2023-05-08T12:02:41.757Z,100941.91
2023-05-08T12:05:09.375Z,100941.00
2023-05-08T12:07:46.765Z,100941.50
2023-05-08T12:10:17.451Z,100941.45
2023-05-08T12:12:45.013Z,100939.23
2023-05-08T12:15:13.460Z,100940.67
2023-05-08T12:17:40.964Z,100939.09
2023-05-08T12:20:14.709Z,100937.35
2023-05-08T12:22:42.100Z,100932.21
2023-05-08T12:25:10.582Z,100934.09
2023-05-08T12:27:37.739Z,100933.58
2023-05-08T12:30:09.197Z,100938.36
2023-05-08T12:32:43.261Z,100930.75
2023-05-08T12:35:11.238Z,100937.80
2023-05-08T12:37:38.156Z,100942.55
2023-05-08T12:40:05.536Z,100940.08
2023-05-08T12:42:45.494Z,100938.52
2023-05-08T12:45:18.972Z,100939.44
2023-05-08T12:47:47.343Z,100933.66
2023-05-08T12:50:15.889Z,100930.11
2023-05-08T12:52:43.103Z,100928.46
2023-05-08T12:55:29.571Z,100924.98
2023-05-08T12:58:14.254Z,100922.67
2023-05-08T13:00:46.730Z,100921.52
2023-05-08T13:03:15.392Z,100923.61
2023-05-08T13:05:44.340Z,100920.77
2023-05-08T13:08:11.161Z,100917.86
2023-05-08T13:10:54.316Z,100918.70
2023-05-08T13:13:26.073Z,100915.64
2023-05-08T13:15:54.123Z,100913.96
2023-05-08T13:18:21.878Z,100914.36
2023-05-08T13:20:48.864Z,100915.83
2023-05-08T13:23:15.796Z,100910.27
2023-05-08T13:25:42.426Z,100913.70
2023-05-08T13:28:09.812Z,100921.02
2023-05-08T13:30:37.006Z,100924.35
2023-05-08T13:33:04.903Z,100928.98
2023-05-08T13:35:32.102Z,100928.52
2023-05-08T13:37:58.917Z,100929.33
2023-05-08T13:40:25.909Z,100930.83
2023-05-08T13:42:52.583Z,100932.35
2023-05-08T13:45:19.435Z,100934.29
2023-05-08T13:47:46.899Z,100933.02
2023-05-08T13:50:15.872Z,100931.80
2023-05-08T13:52:42.746Z,100932.88
2023-05-08T13:55:11.280Z,100929.20
2023-05-08T13:57:38.766Z,100922.76
2023-05-08T14:00:06.496Z,100925.04
2023-05-08T14:02:37.680Z,100925.56
2023-05-08T14:05:05.596Z,100923.34
2023-05-08T14:07:32.210Z,100926.09
2023-05-08T14:09:59.124Z,100922.43
2023-05-08T14:12:25.888Z,100922.88
2023-05-08T14:14:52.499Z,100922.68
2023-05-08T14:17:19.228Z,100923.61
2023-05-08T14:19:48.724Z,100923.81
2023-05-08T14:22:15.355Z,100925.63
2023-05-08T14:24:41.969Z,100921.46
2023-05-08T14:27:08.615Z,100924.11
2023-05-08T14:29:35.478Z,100923.45
2023-05-08T14:32:02.397Z,100923.94
2023-05-08T14:34:29.510Z,100920.70
2023-05-08T14:36:56.223Z,100925.70
2023-05-08T14:39:22.946Z,100928.19
2023-05-08T14:42:05.691Z,100925.91
2023-05-08T14:44:36.276Z,100930.63
2023-05-08T14:47:02.891Z,100923.67
2023-05-08T14:49:37.454Z,100926.73
2023-05-08T14:52:05.740Z,100922.95
2023-05-08T14:54:32.841Z,100925.80
2023-05-08T14:56:59.800Z,100927.23
2023-05-08T14:59:26.449Z,100928.86
2023-05-08T15:01:53.106Z,100927.85
2023-05-08T15:04:19.853Z,100926.55
2023-05-08T15:06:46.928Z,100927.91
2023-05-08T15:09:13.756Z,100924.27
2023-05-08T15:11:40.713Z,100923.84
2023-05-08T15:14:07.416Z,100925.51
2023-05-08T15:16:34.066Z,100926.49
2023-05-08T15:19:01.214Z,100924.69
2023-05-08T15:21:28.549Z,100923.48
2023-05-08T15:23:55.827Z,100924.77
2023-05-08T15:26:22.759Z,100921.95
2023-05-08T15:28:49.438Z,100928.38
2023-05-08T15:31:16.395Z,100926.17
2023-05-08T15:33:45.186Z,100926.05
2023-05-08T15:36:13.240Z,100927.85
2023-05-08T15:38:41.127Z,100926.90
2023-05-08T15:41:12.104Z,100933.10
2023-05-08T15:43:40.757Z,100934.16
2023-05-08T15:46:07.612Z,100930.64
2023-05-08T15:48:34.665Z,100933.65
2023-05-08T15:51:01.514Z,100929.20
2023-05-08T15:53:28.154Z,100931.08
2023-05-08T15:55:55.736Z,100929.75
2023-05-08T15:58:23.020Z,100930.16
2023-05-08T16:00:49.725Z,100928.70
2023-05-08T16:03:16.485Z,100928.23
2023-05-08T16:05:43.590Z,100930.36
2023-05-08T16:08:12.805Z,100931.45
2023-05-08T16:10:40.804Z,100934.40
2023-05-08T16:13:07.679Z,100932.78
2023-05-08T16:15:34.546Z,100933.86
2023-05-08T16:18:01.564Z,100934.10
2023-05-08T16:20:28.322Z,100932.19
2023-05-08T16:22:55.916Z,100936.85
2023-05-08T16:25:22.576Z,100935.09
2023-05-08T16:27:49.429Z,100934.59
2023-05-08T16:30:16.569Z,100939.77
2023-05-08T16:32:45.605Z,100940.07
2023-05-08T16:35:12.554Z,100942.49
2023-05-08T16:37:39.995Z,100942.30
2023-05-08T16:40:07.901Z,100946.23
2023-05-08T16:42:34.722Z,100945.47
2023-05-08T16:45:01.492Z,100950.67
2023-05-08T16:47:28.383Z,100950.67
2023-05-08T16:49:55.539Z,100949.54
2023-05-08T16:52:22.161Z,100950.84
2023-05-08T16:54:48.872Z,100954.77
2023-05-08T16:57:15.667Z,100955.92
2023-05-08T16:59:42.537Z,100956.02
2023-05-08T17:02:09.588Z,100958.40
2023-05-08T17:04:36.461Z,100962.00
2023-05-08T17:07:05.151Z,100965.59
2023-05-08T17:09:33.067Z,100965.98
2023-05-08T17:12:01.996Z,100972.02
2023-05-08T17:14:28.692Z,100978.25
2023-05-08T17:16:55.567Z,100979.43
2023-05-08T17:19:22.489Z,100981.62
2023-05-08T17:21:49.108Z,100982.81
2023-05-08T17:24:15.724Z,100983.95
2023-05-08T17:26:42.426Z,100988.98
2023-05-08T17:29:09.102Z,100990.14
2023-05-08T17:31:35.725Z,100994.45
2023-05-08T17:34:02.382Z,100998.61
2023-05-08T17:36:29.006Z,100997.97
2023-05-08T17:38:55.972Z,100998.42
2023-05-08T17:41:22.929Z,101001.63
2023-05-08T17:43:49.585Z,101002.09
2023-05-08T17:46:16.363Z,101005.22
2023-05-08T17:48:43.175Z,101005.48
2023-05-08T17:51:13.721Z,101012.98
2023-05-08T17:53:40.509Z,101015.38
2023-05-08T17:56:07.891Z,101021.04
2023-05-08T17:58:34.548Z,101022.85
2023-05-08T18:01:01.335Z,101027.99
2023-05-08T18:03:28.202Z,101030.71
2023-05-08T18:05:54.835Z,101033.09
2023-05-08T18:08:21.479Z,101033.52
2023-05-08T18:10:48.102Z,101037.23
2023-05-08T18:13:14.897Z,101035.25
2023-05-08T18:15:41.756Z,101043.88
2023-05-08T18:18:08.667Z,101042.70
2023-05-08T18:20:35.634Z,101045.30
2023-05-08T18:23:02.280Z,101041.75
2023-05-08T18:25:29.122Z,101044.83
2023-05-08T18:27:55.869Z,101048.38
2023-05-08T18:30:22.713Z,101048.85
2023-05-08T18:32:50.815Z,101046.16
2023-05-08T18:35:17.988Z,101049.94
2023-05-08T18:37:44.617Z,101049.69
2023-05-08T18:40:12.474Z,101051.28
2023-05-08T18:42:39.560Z,101052.92
2023-05-08T18:45:07.164Z,101054.73
2023-05-08T18:47:33.886Z,101056.44
2023-05-08T18:50:00.667Z,101057.23
2023-05-08T18:52:27.658Z,101059.08
2023-05-08T18:54:54.269Z,101058.19
2023-05-08T18:57:20.989Z,101058.98
2023-05-08T18:59:47.669Z,101060.09
2023-05-08T19:02:14.613Z,101062.30
2023-05-08T19:04:41.351Z,101065.30
2023-05-08T19:07:08.256Z,101063.27
2023-05-08T19:09:35.084Z,101068.42
2023-05-08T19:12:01.770Z,101065.20
2023-05-08T19:14:28.390Z,101066.91
2023-05-08T19:16:57.063Z,101068.56
2023-05-08T19:19:25.544Z,101070.90
2023-05-08T19:21:52.316Z,101069.58
2023-05-08T19:24:21.063Z,101067.54
2023-05-08T19:26:48.106Z,101066.38
2023-05-08T19:29:14.976Z,101067.68
2023-05-08T19:31:41.608Z,101069.64
2023-05-08T19:34:08.364Z,101067.02
2023-05-08T19:36:37.676Z,101069.55
2023-05-08T19:39:04.981Z,101073.09
2023-05-08T19:41:32.097Z,101071.42
2023-05-08T19:43:58.799Z,101073.76
2023-05-08T19:46:25.537Z,101075.05
2023-05-08T19:48:52.215Z,101073.32
2023-05-08T19:51:18.909Z,101072.16
2023-05-08T19:53:45.625Z,101071.70
2023-05-08T19:56:12.527Z,101070.70
2023-05-08T19:58:39.140Z,101068.11
2023-05-08T20:01:05.859Z,101066.59
2023-05-08T20:03:32.646Z,101068.90
2023-05-08T20:05:59.410Z,101070.65
2023-05-08T20:08:26.009Z,101071.88
2023-05-08T20:10:52.659Z,101069.84
2023-05-08T20:13:19.437Z,101071.61
2023-05-08T20:15:46.223Z,101069.23
2023-05-08T20:18:12.850Z,101067.86
2023-05-08T20:20:39.475Z,101067.88
2023-05-08T20:23:06.124Z,101069.27
2023-05-08T20:25:32.842Z,101069.63
2023-05-08T20:27:59.533Z,101067.73
2023-05-08T20:30:26.248Z,101068.63
2023-05-08T20:32:53.166Z,101067.45
2023-05-08T20:35:20.038Z,101067.83
2023-05-08T20:37:47.191Z,101065.01
2023-05-08T20:40:14.585Z,101065.63
2023-05-08T20:42:41.887Z,101066.08
2023-05-08T20:45:09.520Z,101068.11
2023-05-08T20:47:36.249Z,101065.34
2023-05-08T20:50:03.521Z,101064.81
2023-05-08T20:52:32.331Z,101066.11
2023-05-08T20:54:59.384Z,101065.26
2023-05-08T20:57:26.026Z,101068.38
2023-05-08T20:59:52.656Z,101069.16
2023-05-08T21:02:19.269Z,101068.95
2023-05-08T21:04:45.940Z,101068.95
2023-05-08T21:07:12.821Z,101074.73
2023-05-08T21:09:39.434Z,101071.77
2023-05-08T21:12:06.637Z,101071.70
2023-05-08T21:14:33.360Z,101070.45
2023-05-08T21:17:00.138Z,101070.23
2023-05-08T21:19:26.845Z,101072.16
2023-05-08T21:21:53.424Z,101070.23
2023-05-08T21:24:20.114Z,101074.95
2023-05-08T21:26:46.717Z,101076.01
2023-05-08T21:29:13.328Z,101078.98
2023-05-08T21:31:41.196Z,101079.41
2023-05-08T21:34:07.948Z,101078.46
2023-05-08T21:36:35.322Z,101077.61
2023-05-08T21:39:02.461Z,101079.31
2023-05-08T21:41:29.051Z,101078.46
2023-05-08T21:43:56.195Z,101075.34
2023-05-08T21:46:22.906Z,101075.04
2023-05-08T21:48:49.627Z,101069.48
2023-05-08T21:51:16.273Z,101069.05
2023-05-08T21:53:42.890Z,101069.34
2023-05-08T21:56:09.499Z,101069.30
2023-05-08T21:58:36.228Z,101066.95
2023-05-08T22:01:02.905Z,101064.30
2023-05-08T22:03:30.785Z,101061.61
2023-05-08T22:05:57.578Z,101057.30
2023-05-08T22:08:24.163Z,101061.21
2023-05-08T22:10:50.829Z,101060.42
2023-05-08T22:13:17.553Z,101059.11
2023-05-08T22:15:44.557Z,101057.12
2023-05-08T22:18:11.309Z,101053.94
2023-05-08T22:20:38.017Z,101056.12
2023-05-08T22:23:04.705Z,101058.40
2023-05-08T22:25:31.299Z,101057.16
2023-05-08T22:27:58.103Z,101059.19
2023-05-08T22:30:24.721Z,101059.27
2023-05-08T22:32:56.002Z,101060.77
2023-05-08T22:35:24.447Z,101064.39
2023-05-08T22:37:52.383Z,101063.80
2023-05-08T22:40:19.256Z,101065.99
2023-05-08T22:42:46.162Z,101061.22
2023-05-08T22:45:14.256Z,101064.22
2023-05-08T22:47:41.297Z,101065.48
2023-05-08T22:50:09.332Z,101064.14
2023-05-08T22:52:36.244Z,101061.39
2023-05-08T22:55:02.936Z,101058.50
2023-05-08T22:57:29.797Z,101057.84
2023-05-08T22:59:56.436Z,101059.09
2023-05-08T23:02:23.475Z,101058.42
2023-05-08T23:04:50.276Z,101059.14
2023-05-08T23:07:17.063Z,101057.26
2023-05-08T23:09:43.733Z,101059.53
2023-05-08T23:12:10.343Z,101059.02
2023-05-08T23:14:36.926Z,101062.70
2023-05-08T23:17:03.596Z,101063.77
2023-05-08T23:19:30.628Z,101062.07
2023-05-08T23:21:57.228Z,101062.45
2023-05-08T23:24:23.841Z,101062.48
2023-05-08T23:26:52.462Z,101066.14
2023-05-08T23:29:19.073Z,101070.15
2023-05-08T23:31:45.783Z,101070.87
2023-05-08T23:34:12.547Z,101068.78
2023-05-08T23:36:39.141Z,101068.63
2023-05-08T23:39:07.164Z,101069.84
2023-05-08T23:41:34.178Z,101069.65
2023-05-08T23:44:00.882Z,101071.04
2023-05-08T23:46:28.066Z,101069.31
2023-05-08T23:48:54.786Z,101067.77
2023-05-08T23:51:21.631Z,101066.56
2023-05-08T23:53:49.032Z,101065.70
2023-05-08T23:56:15.758Z,101066.73
